sensor_id;sensor_type;location;lat;lon;timestamp;P1;durP1;ratioP1;P2;durP2;ratioP2
69419;SDS011;56612;52.030;113.524;2023-02-28T00:02:23;9.82;;;3.00;;
69419;SDS011;56612;52.030;113.524;2023-02-28T00:05:27;9.90;;;3.15;;
69419;SDS011;56612;52.030;113.524;2023-02-28T00:08:32;10.93;;;3.55;;
69419;SDS011;56612;52.030;113.524;2023-02-28T00:11:36;9.00;;;2.97;;
69419;SDS011;56612;52.030;113.524;2023-02-28T00:14:40;14.98;;;3.58;;
69419;SDS011;56612;52.030;113.524;2023-02-28T00:17:43;18.77;;;5.18;;
69419;SDS011;56612;52.030;113.524;2023-02-28T00:20:47;27.38;;;5.45;;
69419;SDS011;56612;52.030;113.524;2023-02-28T00:23:51;34.97;;;9.45;;
69419;SDS011;56612;52.030;113.524;2023-02-28T00:26:55;33.23;;;8.40;;
69419;SDS011;56612;52.030;113.524;2023-02-28T00:29:59;33.38;;;8.85;;
69419;SDS011;56612;52.030;113.524;2023-02-28T00:33:04;27.17;;;7.65;;
69419;SDS011;56612;52.030;113.524;2023-02-28T00:36:09;34.50;;;7.35;;
69419;SDS011;56612;52.030;113.524;2023-02-28T00:39:14;17.88;;;5.43;;
69419;SDS011;56612;52.030;113.524;2023-02-28T00:42:18;21.77;;;5.43;;
69419;SDS011;56612;52.030;113.524;2023-02-28T00:45:22;23.40;;;6.28;;
69419;SDS011;56612;52.030;113.524;2023-02-28T00:48:25;37.55;;;7.65;;
69419;SDS011;56612;52.030;113.524;2023-02-28T00:51:29;26.42;;;6.93;;
69419;SDS011;56612;52.030;113.524;2023-02-28T00:54:32;15.73;;;4.53;;
69419;SDS011;56612;52.030;113.524;2023-02-28T00:57:36;6.40;;;2.65;;
69419;SDS011;56612;52.030;113.524;2023-02-28T01:00:39;9.80;;;2.50;;
69419;SDS011;56612;52.030;113.524;2023-02-28T01:03:45;10.07;;;3.40;;
69419;SDS011;56612;52.030;113.524;2023-02-28T01:06:49;3.00;;;1.00;;
69419;SDS011;56612;52.030;113.524;2023-02-28T01:09:53;9.23;;;2.40;;
69419;SDS011;56612;52.030;113.524;2023-02-28T01:12:59;6.68;;;1.52;;
69419;SDS011;56612;52.030;113.524;2023-02-28T01:16:02;10.13;;;2.95;;
69419;SDS011;56612;52.030;113.524;2023-02-28T01:19:06;5.20;;;1.73;;
69419;SDS011;56612;52.030;113.524;2023-02-28T01:22:12;9.07;;;2.25;;
69419;SDS011;56612;52.030;113.524;2023-02-28T01:25:16;8.23;;;2.80;;
69419;SDS011;56612;52.030;113.524;2023-02-28T01:28:20;6.78;;;2.15;;
69419;SDS011;56612;52.030;113.524;2023-02-28T01:31:24;8.98;;;2.53;;
69419;SDS011;56612;52.030;113.524;2023-02-28T01:34:29;11.70;;;3.92;;
69419;SDS011;56612;52.030;113.524;2023-02-28T01:37:33;13.52;;;3.13;;
69419;SDS011;56612;52.030;113.524;2023-02-28T01:40:37;12.63;;;3.97;;
69419;SDS011;56612;52.030;113.524;2023-02-28T01:46:48;9.75;;;3.10;;
69419;SDS011;56612;52.030;113.524;2023-02-28T01:49:51;8.60;;;3.33;;
69419;SDS011;56612;52.030;113.524;2023-02-28T01:52:56;8.25;;;3.00;;
69419;SDS011;56612;52.030;113.524;2023-02-28T01:56:05;8.37;;;3.13;;
69419;SDS011;56612;52.030;113.524;2023-02-28T01:59:18;10.70;;;3.08;;
69419;SDS011;56612;52.030;113.524;2023-02-28T02:02:27;13.82;;;3.85;;
69419;SDS011;56612;52.030;113.524;2023-02-28T02:05:32;13.90;;;3.85;;
69419;SDS011;56612;52.030;113.524;2023-02-28T02:08:37;9.52;;;3.17;;
69419;SDS011;56612;52.030;113.524;2023-02-28T02:11:41;14.03;;;3.57;;
69419;SDS011;56612;52.030;113.524;2023-02-28T02:14:54;8.88;;;3.15;;
69419;SDS011;56612;52.030;113.524;2023-02-28T02:45:16;7.47;;;2.47;;
69419;SDS011;56612;52.030;113.524;2023-02-28T02:48:29;11.02;;;3.15;;
69419;SDS011;56612;52.030;113.524;2023-02-28T02:51:36;14.00;;;4.30;;
69419;SDS011;56612;52.030;113.524;2023-02-28T02:54:45;12.30;;;4.32;;
69419;SDS011;56612;52.030;113.524;2023-02-28T02:57:54;10.98;;;3.22;;
69419;SDS011;56612;52.030;113.524;2023-02-28T03:01:02;15.50;;;3.77;;
69419;SDS011;56612;52.030;113.524;2023-02-28T03:04:09;10.90;;;3.83;;
69419;SDS011;56612;52.030;113.524;2023-02-28T03:07:16;13.65;;;4.25;;
69419;SDS011;56612;52.030;113.524;2023-02-28T03:10:31;17.15;;;3.80;;
69419;SDS011;56612;52.030;113.524;2023-02-28T03:20:56;10.77;;;3.17;;
69419;SDS011;56612;52.030;113.524;2023-02-28T03:24:16;9.95;;;3.55;;
69419;SDS011;56612;52.030;113.524;2023-02-28T03:31:11;8.98;;;3.47;;
69419;SDS011;56612;52.030;113.524;2023-02-28T03:34:28;11.43;;;3.43;;
69419;SDS011;56612;52.030;113.524;2023-02-28T03:37:37;8.10;;;2.80;;
69419;SDS011;56612;52.030;113.524;2023-02-28T03:40:46;11.23;;;3.70;;
69419;SDS011;56612;52.030;113.524;2023-02-28T03:43:54;9.18;;;3.22;;
69419;SDS011;56612;52.030;113.524;2023-02-28T03:47:02;16.45;;;3.03;;
69419;SDS011;56612;52.030;113.524;2023-02-28T03:50:28;9.27;;;3.27;;
69419;SDS011;56612;52.030;113.524;2023-02-28T03:53:38;7.90;;;3.10;;
69419;SDS011;56612;52.030;113.524;2023-02-28T03:57:06;13.48;;;3.75;;
69419;SDS011;56612;52.030;113.524;2023-02-28T04:00:36;10.18;;;2.50;;
69419;SDS011;56612;52.030;113.524;2023-02-28T04:03:42;11.23;;;4.03;;
69419;SDS011;56612;52.030;113.524;2023-02-28T04:06:49;10.03;;;3.20;;
69419;SDS011;56612;52.030;113.524;2023-02-28T04:09:53;6.90;;;3.00;;
69419;SDS011;56612;52.030;113.524;2023-02-28T04:12:57;7.05;;;2.78;;
69419;SDS011;56612;52.030;113.524;2023-02-28T04:16:01;9.30;;;2.90;;
69419;SDS011;56612;52.030;113.524;2023-02-28T04:19:06;11.88;;;2.80;;
69419;SDS011;56612;52.030;113.524;2023-02-28T04:22:10;7.67;;;3.00;;
69419;SDS011;56612;52.030;113.524;2023-02-28T04:25:14;11.60;;;3.20;;
69419;SDS011;56612;52.030;113.524;2023-02-28T04:28:18;10.68;;;3.30;;
69419;SDS011;56612;52.030;113.524;2023-02-28T04:31:21;11.05;;;4.00;;
69419;SDS011;56612;52.030;113.524;2023-02-28T04:34:25;11.95;;;3.60;;
69419;SDS011;56612;52.030;113.524;2023-02-28T04:37:33;12.33;;;3.70;;
69419;SDS011;56612;52.030;113.524;2023-02-28T04:40:39;8.87;;;2.87;;
69419;SDS011;56612;52.030;113.524;2023-02-28T04:43:43;9.45;;;2.80;;
69419;SDS011;56612;52.030;113.524;2023-02-28T04:46:47;14.10;;;3.92;;
69419;SDS011;56612;52.030;113.524;2023-02-28T04:49:50;11.43;;;3.28;;
69419;SDS011;56612;52.030;113.524;2023-02-28T04:52:54;14.33;;;3.53;;
69419;SDS011;56612;52.030;113.524;2023-02-28T04:55:57;13.47;;;3.70;;
69419;SDS011;56612;52.030;113.524;2023-02-28T04:59:01;13.55;;;3.47;;
69419;SDS011;56612;52.030;113.524;2023-02-28T05:02:05;13.50;;;3.60;;
69419;SDS011;56612;52.030;113.524;2023-02-28T05:05:10;10.13;;;3.67;;
69419;SDS011;56612;52.030;113.524;2023-02-28T05:08:19;11.80;;;2.77;;
69419;SDS011;56612;52.030;113.524;2023-02-28T05:11:25;12.53;;;3.23;;
69419;SDS011;56612;52.030;113.524;2023-02-28T05:14:32;8.35;;;2.72;;
69419;SDS011;56612;52.030;113.524;2023-02-28T05:17:36;13.63;;;3.22;;
69419;SDS011;56612;52.030;113.524;2023-02-28T05:20:39;11.80;;;2.50;;
69419;SDS011;56612;52.030;113.524;2023-02-28T05:23:43;16.67;;;3.37;;
69419;SDS011;56612;52.030;113.524;2023-02-28T05:26:49;15.40;;;3.90;;
69419;SDS011;56612;52.030;113.524;2023-02-28T05:29:55;9.77;;;2.58;;
69419;SDS011;56612;52.030;113.524;2023-02-28T05:32:59;15.07;;;3.55;;
69419;SDS011;56612;52.030;113.524;2023-02-28T05:36:02;8.88;;;3.00;;
69419;SDS011;56612;52.030;113.524;2023-02-28T05:39:07;7.77;;;1.93;;
69419;SDS011;56612;52.030;113.524;2023-02-28T05:42:15;10.67;;;2.47;;
69419;SDS011;56612;52.030;113.524;2023-02-28T05:45:19;7.63;;;2.05;;
69419;SDS011;56612;52.030;113.524;2023-02-28T05:48:22;7.45;;;2.42;;
69419;SDS011;56612;52.030;113.524;2023-02-28T05:51:26;12.57;;;3.25;;
69419;SDS011;56612;52.030;113.524;2023-02-28T05:54:30;13.13;;;2.73;;
69419;SDS011;56612;52.030;113.524;2023-02-28T05:57:34;7.80;;;2.97;;
69419;SDS011;56612;52.030;113.524;2023-02-28T06:00:37;14.23;;;2.83;;
69419;SDS011;56612;52.030;113.524;2023-02-28T06:03:43;11.48;;;2.92;;
69419;SDS011;56612;52.030;113.524;2023-02-28T06:06:46;9.10;;;2.15;;
69419;SDS011;56612;52.030;113.524;2023-02-28T06:09:51;5.57;;;2.20;;
69419;SDS011;56612;52.030;113.524;2023-02-28T06:12:54;10.38;;;3.63;;
69419;SDS011;56612;52.030;113.524;2023-02-28T06:16:00;9.02;;;1.98;;
69419;SDS011;56612;52.030;113.524;2023-02-28T06:19:04;12.05;;;2.35;;
69419;SDS011;56612;52.030;113.524;2023-02-28T06:22:07;8.63;;;2.45;;
69419;SDS011;56612;52.030;113.524;2023-02-28T06:25:11;11.60;;;2.20;;
69419;SDS011;56612;52.030;113.524;2023-02-28T06:28:15;10.03;;;2.70;;
69419;SDS011;56612;52.030;113.524;2023-02-28T06:31:20;11.60;;;2.90;;
69419;SDS011;56612;52.030;113.524;2023-02-28T06:34:24;15.70;;;2.65;;
69419;SDS011;56612;52.030;113.524;2023-02-28T06:37:27;7.65;;;2.47;;
69419;SDS011;56612;52.030;113.524;2023-02-28T06:40:31;10.63;;;3.00;;
69419;SDS011;56612;52.030;113.524;2023-02-28T06:43:39;10.20;;;3.05;;
69419;SDS011;56612;52.030;113.524;2023-02-28T06:46:44;9.90;;;2.63;;
69419;SDS011;56612;52.030;113.524;2023-02-28T06:49:49;11.25;;;3.08;;
69419;SDS011;56612;52.030;113.524;2023-02-28T06:52:52;10.35;;;3.00;;
69419;SDS011;56612;52.030;113.524;2023-02-28T06:55:56;12.67;;;2.97;;
69419;SDS011;56612;52.030;113.524;2023-02-28T06:59:00;10.60;;;3.43;;
69419;SDS011;56612;52.030;113.524;2023-02-28T07:02:03;18.35;;;3.35;;
69419;SDS011;56612;52.030;113.524;2023-02-28T07:05:09;8.07;;;2.38;;
69419;SDS011;56612;52.030;113.524;2023-02-28T07:08:12;12.80;;;3.00;;
69419;SDS011;56612;52.030;113.524;2023-02-28T07:11:16;19.53;;;7.23;;
69419;SDS011;56612;52.030;113.524;2023-02-28T07:14:19;14.40;;;4.03;;
69419;SDS011;56612;52.030;113.524;2023-02-28T07:17:22;10.07;;;3.10;;
69419;SDS011;56612;52.030;113.524;2023-02-28T07:20:25;17.17;;;3.33;;
69419;SDS011;56612;52.030;113.524;2023-02-28T07:23:29;8.93;;;2.75;;
69419;SDS011;56612;52.030;113.524;2023-02-28T07:26:32;10.43;;;3.83;;
69419;SDS011;56612;52.030;113.524;2023-02-28T07:29:37;7.87;;;3.00;;
69419;SDS011;56612;52.030;113.524;2023-02-28T07:32:41;14.88;;;3.20;;
69419;SDS011;56612;52.030;113.524;2023-02-28T07:35:46;13.60;;;4.25;;
69419;SDS011;56612;52.030;113.524;2023-02-28T07:38:50;12.43;;;2.92;;
69419;SDS011;56612;52.030;113.524;2023-02-28T07:41:53;14.13;;;3.07;;
69419;SDS011;56612;52.030;113.524;2023-02-28T07:45:00;13.67;;;3.77;;
69419;SDS011;56612;52.030;113.524;2023-02-28T07:48:03;16.13;;;3.45;;
69419;SDS011;56612;52.030;113.524;2023-02-28T07:51:07;12.27;;;4.22;;
69419;SDS011;56612;52.030;113.524;2023-02-28T07:54:10;14.88;;;4.40;;
69419;SDS011;56612;52.030;113.524;2023-02-28T07:57:14;15.67;;;4.87;;
69419;SDS011;56612;52.030;113.524;2023-02-28T08:00:18;9.90;;;3.37;;
69419;SDS011;56612;52.030;113.524;2023-02-28T08:03:22;9.50;;;2.80;;
69419;SDS011;56612;52.030;113.524;2023-02-28T08:06:27;7.55;;;3.13;;
69419;SDS011;56612;52.030;113.524;2023-02-28T08:09:30;9.98;;;2.47;;
69419;SDS011;56612;52.030;113.524;2023-02-28T08:12:34;9.37;;;2.93;;
69419;SDS011;56612;52.030;113.524;2023-02-28T08:15:38;10.73;;;3.60;;
69419;SDS011;56612;52.030;113.524;2023-02-28T08:18:44;14.93;;;3.67;;
69419;SDS011;56612;52.030;113.524;2023-02-28T08:21:47;10.07;;;3.15;;
69419;SDS011;56612;52.030;113.524;2023-02-28T08:24:51;11.75;;;3.42;;
69419;SDS011;56612;52.030;113.524;2023-02-28T08:27:55;15.03;;;3.43;;
69419;SDS011;56612;52.030;113.524;2023-02-28T08:30:58;16.07;;;4.43;;
69419;SDS011;56612;52.030;113.524;2023-02-28T08:34:05;29.40;;;5.85;;
69419;SDS011;56612;52.030;113.524;2023-02-28T08:37:12;10.45;;;3.50;;
69419;SDS011;56612;52.030;113.524;2023-02-28T08:40:17;8.00;;;3.10;;
69419;SDS011;56612;52.030;113.524;2023-02-28T08:43:23;10.73;;;3.23;;
69419;SDS011;56612;52.030;113.524;2023-02-28T08:46:27;6.97;;;2.30;;
69419;SDS011;56612;52.030;113.524;2023-02-28T08:49:30;15.35;;;3.78;;
69419;SDS011;56612;52.030;113.524;2023-02-28T08:52:34;25.65;;;4.20;;
69419;SDS011;56612;52.030;113.524;2023-02-28T08:55:38;15.68;;;4.03;;
69419;SDS011;56612;52.030;113.524;2023-02-28T08:58:42;23.57;;;4.60;;
69419;SDS011;56612;52.030;113.524;2023-02-28T09:01:46;20.07;;;4.43;;
69419;SDS011;56612;52.030;113.524;2023-02-28T09:04:50;13.82;;;3.28;;
69419;SDS011;56612;52.030;113.524;2023-02-28T09:07:53;12.18;;;4.32;;
69419;SDS011;56612;52.030;113.524;2023-02-28T09:10:57;13.13;;;5.15;;
69419;SDS011;56612;52.030;113.524;2023-02-28T09:14:04;10.20;;;4.83;;
69419;SDS011;56612;52.030;113.524;2023-02-28T09:17:07;15.70;;;5.85;;
69419;SDS011;56612;52.030;113.524;2023-02-28T09:20:11;17.73;;;6.05;;
69419;SDS011;56612;52.030;113.524;2023-02-28T09:23:15;15.30;;;6.20;;
69419;SDS011;56612;52.030;113.524;2023-02-28T09:26:21;31.33;;;7.25;;
69419;SDS011;56612;52.030;113.524;2023-02-28T09:29:26;40.73;;;10.90;;
69419;SDS011;56612;52.030;113.524;2023-02-28T09:32:30;28.40;;;8.00;;
69419;SDS011;56612;52.030;113.524;2023-02-28T09:35:34;20.70;;;7.90;;
69419;SDS011;56612;52.030;113.524;2023-02-28T09:38:39;13.63;;;5.15;;
69419;SDS011;56612;52.030;113.524;2023-02-28T09:41:44;14.98;;;5.03;;
69419;SDS011;56612;52.030;113.524;2023-02-28T09:44:53;10.63;;;4.10;;
69419;SDS011;56612;52.030;113.524;2023-02-28T09:47:57;8.57;;;3.58;;
69419;SDS011;56612;52.030;113.524;2023-02-28T09:51:14;9.55;;;3.58;;
69419;SDS011;56612;52.030;113.524;2023-02-28T09:54:31;9.75;;;3.33;;
69419;SDS011;56612;52.030;113.524;2023-02-28T09:57:36;17.17;;;3.38;;
69419;SDS011;56612;52.030;113.524;2023-02-28T10:00:43;8.17;;;2.70;;
69419;SDS011;56612;52.030;113.524;2023-02-28T10:03:57;12.45;;;3.40;;
69419;SDS011;56612;52.030;113.524;2023-02-28T10:10:48;16.85;;;2.83;;
69419;SDS011;56612;52.030;113.524;2023-02-28T10:14:02;11.75;;;2.92;;
69419;SDS011;56612;52.030;113.524;2023-02-28T10:17:23;8.33;;;3.20;;
69419;SDS011;56612;52.030;113.524;2023-02-28T10:20:34;10.30;;;3.10;;
69419;SDS011;56612;52.030;113.524;2023-02-28T10:23:41;10.38;;;3.10;;
69419;SDS011;56612;52.030;113.524;2023-02-28T10:26:47;9.15;;;3.28;;
69419;SDS011;56612;52.030;113.524;2023-02-28T10:29:53;11.48;;;3.72;;
69419;SDS011;56612;52.030;113.524;2023-02-28T10:33:02;11.60;;;3.60;;
69419;SDS011;56612;52.030;113.524;2023-02-28T10:36:08;11.38;;;3.65;;
69419;SDS011;56612;52.030;113.524;2023-02-28T10:43:00;8.32;;;2.78;;
69419;SDS011;56612;52.030;113.524;2023-02-28T10:46:14;7.68;;;2.13;;
69419;SDS011;56612;52.030;113.524;2023-02-28T10:49:29;10.70;;;3.27;;
69419;SDS011;56612;52.030;113.524;2023-02-28T10:52:39;11.80;;;3.67;;
69419;SDS011;56612;52.030;113.524;2023-02-28T10:56:03;14.75;;;4.63;;
69419;SDS011;56612;52.030;113.524;2023-02-28T10:59:26;13.75;;;5.15;;
69419;SDS011;56612;52.030;113.524;2023-02-28T11:02:35;17.35;;;6.32;;
69419;SDS011;56612;52.030;113.524;2023-02-28T11:05:45;19.70;;;6.60;;
69419;SDS011;56612;52.030;113.524;2023-02-28T11:08:50;22.10;;;7.55;;
69419;SDS011;56612;52.030;113.524;2023-02-28T11:11:56;39.05;;;12.95;;
69419;SDS011;56612;52.030;113.524;2023-02-28T11:15:00;22.00;;;6.43;;
69419;SDS011;56612;52.030;113.524;2023-02-28T11:21:25;22.67;;;7.13;;
69419;SDS011;56612;52.030;113.524;2023-02-28T11:24:43;16.23;;;5.57;;
69419;SDS011;56612;52.030;113.524;2023-02-28T11:27:50;18.02;;;5.78;;
69419;SDS011;56612;52.030;113.524;2023-02-28T11:34:23;16.52;;;5.03;;
69419;SDS011;56612;52.030;113.524;2023-02-28T11:37:30;21.33;;;7.77;;
69419;SDS011;56612;52.030;113.524;2023-02-28T11:53:57;38.90;;;11.40;;
69419;SDS011;56612;52.030;113.524;2023-02-28T12:00:54;24.08;;;9.77;;
69419;SDS011;56612;52.030;113.524;2023-02-28T12:04:07;24.05;;;8.25;;
69419;SDS011;56612;52.030;113.524;2023-02-28T12:07:44;24.33;;;7.35;;
69419;SDS011;56612;52.030;113.524;2023-02-28T12:18:13;27.20;;;7.75;;
69419;SDS011;56612;52.030;113.524;2023-02-28T12:21:04;22.40;;;6.90;;
69419;SDS011;56612;52.030;113.524;2023-02-28T12:27:28;27.70;;;9.03;;
69419;SDS011;56612;52.030;113.524;2023-02-28T12:30:35;31.33;;;9.00;;
69419;SDS011;56612;52.030;113.524;2023-02-28T12:33:45;21.85;;;7.70;;
69419;SDS011;56612;52.030;113.524;2023-02-28T12:36:53;20.55;;;7.50;;
69419;SDS011;56612;52.030;113.524;2023-02-28T12:40:02;26.77;;;8.57;;
69419;SDS011;56612;52.030;113.524;2023-02-28T12:43:10;20.07;;;7.13;;
69419;SDS011;56612;52.030;113.524;2023-02-28T12:46:18;14.77;;;6.03;;
69419;SDS011;56612;52.030;113.524;2023-02-28T12:49:34;21.60;;;6.88;;
69419;SDS011;56612;52.030;113.524;2023-02-28T12:59:16;19.33;;;7.20;;
69419;SDS011;56612;52.030;113.524;2023-02-28T13:12:14;28.73;;;8.02;;
69419;SDS011;56612;52.030;113.524;2023-02-28T13:15:23;33.33;;;11.07;;
69419;SDS011;56612;52.030;113.524;2023-02-28T13:21:43;21.65;;;7.78;;
69419;SDS011;56612;52.030;113.524;2023-02-28T13:27:57;26.08;;;9.52;;
69419;SDS011;56612;52.030;113.524;2023-02-28T13:31:04;25.33;;;9.07;;
69419;SDS011;56612;52.030;113.524;2023-02-28T13:34:12;24.90;;;8.35;;
69419;SDS011;56612;52.030;113.524;2023-02-28T13:40:28;27.50;;;8.60;;
69419;SDS011;56612;52.030;113.524;2023-02-28T13:57:11;39.55;;;13.02;;
69419;SDS011;56612;52.030;113.524;2023-02-28T14:01:22;60.92;;;19.75;;
69419;SDS011;56612;52.030;113.524;2023-02-28T14:07:55;51.95;;;17.23;;
69419;SDS011;56612;52.030;113.524;2023-02-28T14:11:04;47.60;;;16.05;;
69419;SDS011;56612;52.030;113.524;2023-02-28T14:17:40;43.50;;;13.02;;
69419;SDS011;56612;52.030;113.524;2023-02-28T14:20:44;44.10;;;13.13;;
69419;SDS011;56612;52.030;113.524;2023-02-28T14:27:50;33.80;;;12.50;;
69419;SDS011;56612;52.030;113.524;2023-02-28T14:37:53;39.33;;;13.20;;
69419;SDS011;56612;52.030;113.524;2023-02-28T14:40:58;35.40;;;13.02;;
69419;SDS011;56612;52.030;113.524;2023-02-28T14:47:38;29.98;;;11.10;;
69419;SDS011;56612;52.030;113.524;2023-02-28T14:50:47;26.83;;;10.23;;
69419;SDS011;56612;52.030;113.524;2023-02-28T14:53:57;33.47;;;10.00;;
69419;SDS011;56612;52.030;113.524;2023-02-28T14:57:03;28.48;;;9.65;;
69419;SDS011;56612;52.030;113.524;2023-02-28T15:00:14;47.60;;;12.98;;
69419;SDS011;56612;52.030;113.524;2023-02-28T15:03:39;36.88;;;12.35;;
69419;SDS011;56612;52.030;113.524;2023-02-28T15:06:45;32.03;;;10.17;;
69419;SDS011;56612;52.030;113.524;2023-02-28T15:09:48;42.15;;;12.02;;
69419;SDS011;56612;52.030;113.524;2023-02-28T15:13:11;33.58;;;10.82;;
69419;SDS011;56612;52.030;113.524;2023-02-28T15:19:36;69.13;;;16.67;;
69419;SDS011;56612;52.030;113.524;2023-02-28T15:22:44;67.67;;;17.93;;
69419;SDS011;56612;52.030;113.524;2023-02-28T15:25:50;75.97;;;19.40;;
69419;SDS011;56612;52.030;113.524;2023-02-28T15:29:04;80.32;;;21.55;;
69419;SDS011;56612;52.030;113.524;2023-02-28T15:32:20;70.07;;;17.88;;
69419;SDS011;56612;52.030;113.524;2023-02-28T15:35:31;57.77;;;16.27;;
69419;SDS011;56612;52.030;113.524;2023-02-28T15:38:35;46.35;;;14.00;;
69419;SDS011;56612;52.030;113.524;2023-02-28T15:41:39;30.10;;;10.73;;
69419;SDS011;56612;52.030;113.524;2023-02-28T15:44:43;37.65;;;13.15;;
69419;SDS011;56612;52.030;113.524;2023-02-28T15:47:47;38.78;;;13.18;;
69419;SDS011;56612;52.030;113.524;2023-02-28T15:50:51;43.77;;;15.07;;
69419;SDS011;56612;52.030;113.524;2023-02-28T15:54:08;43.08;;;13.45;;
69419;SDS011;56612;52.030;113.524;2023-02-28T15:57:27;32.10;;;12.20;;
69419;SDS011;56612;52.030;113.524;2023-02-28T16:00:33;43.92;;;10.60;;
69419;SDS011;56612;52.030;113.524;2023-02-28T16:03:47;30.60;;;10.13;;
69419;SDS011;56612;52.030;113.524;2023-02-28T16:10:03;26.85;;;9.35;;
69419;SDS011;56612;52.030;113.524;2023-02-28T16:13:08;20.42;;;8.02;;
69419;SDS011;56612;52.030;113.524;2023-02-28T16:16:18;30.63;;;9.90;;
69419;SDS011;56612;52.030;113.524;2023-02-28T16:19:24;38.10;;;8.52;;
69419;SDS011;56612;52.030;113.524;2023-02-28T16:22:27;37.70;;;9.93;;
69419;SDS011;56612;52.030;113.524;2023-02-28T16:25:38;31.15;;;10.05;;
69419;SDS011;56612;52.030;113.524;2023-02-28T16:28:45;20.65;;;8.27;;
69419;SDS011;56612;52.030;113.524;2023-02-28T16:31:49;24.03;;;6.20;;
69419;SDS011;56612;52.030;113.524;2023-02-28T16:34:52;21.88;;;7.80;;
69419;SDS011;56612;52.030;113.524;2023-02-28T16:37:55;22.77;;;7.15;;
69419;SDS011;56612;52.030;113.524;2023-02-28T16:40:59;28.75;;;9.45;;
69419;SDS011;56612;52.030;113.524;2023-02-28T16:44:03;35.10;;;10.13;;
69419;SDS011;56612;52.030;113.524;2023-02-28T16:47:15;31.73;;;9.88;;
69419;SDS011;56612;52.030;113.524;2023-02-28T16:50:22;33.95;;;9.68;;
69419;SDS011;56612;52.030;113.524;2023-02-28T16:53:26;25.38;;;7.40;;
69419;SDS011;56612;52.030;113.524;2023-02-28T16:56:30;21.67;;;6.50;;
69419;SDS011;56612;52.030;113.524;2023-02-28T16:59:34;21.95;;;8.40;;
69419;SDS011;56612;52.030;113.524;2023-02-28T17:02:37;37.15;;;9.70;;
69419;SDS011;56612;52.030;113.524;2023-02-28T17:05:43;32.28;;;9.50;;
69419;SDS011;56612;52.030;113.524;2023-02-28T17:08:46;30.10;;;9.27;;
69419;SDS011;56612;52.030;113.524;2023-02-28T17:11:49;27.80;;;9.70;;
69419;SDS011;56612;52.030;113.524;2023-02-28T17:14:53;24.45;;;7.60;;
69419;SDS011;56612;52.030;113.524;2023-02-28T17:17:56;22.15;;;7.30;;
69419;SDS011;56612;52.030;113.524;2023-02-28T17:21:00;19.13;;;7.00;;
69419;SDS011;56612;52.030;113.524;2023-02-28T17:24:04;25.90;;;7.55;;
69419;SDS011;56612;52.030;113.524;2023-02-28T17:27:10;19.88;;;7.00;;
69419;SDS011;56612;52.030;113.524;2023-02-28T17:30:16;18.52;;;6.10;;
69419;SDS011;56612;52.030;113.524;2023-02-28T17:33:22;17.90;;;6.10;;
69419;SDS011;56612;52.030;113.524;2023-02-28T17:36:26;21.13;;;7.05;;
69419;SDS011;56612;52.030;113.524;2023-02-28T17:39:30;27.88;;;8.15;;
69419;SDS011;56612;52.030;113.524;2023-02-28T17:42:35;29.63;;;8.85;;
69419;SDS011;56612;52.030;113.524;2023-02-28T17:45:38;24.43;;;7.10;;
69419;SDS011;56612;52.030;113.524;2023-02-28T17:48:42;21.42;;;8.43;;
69419;SDS011;56612;52.030;113.524;2023-02-28T17:51:46;30.88;;;8.27;;
69419;SDS011;56612;52.030;113.524;2023-02-28T17:54:50;23.80;;;8.02;;
69419;SDS011;56612;52.030;113.524;2023-02-28T17:57:53;25.95;;;7.57;;
69419;SDS011;56612;52.030;113.524;2023-02-28T18:00:57;19.17;;;6.55;;
69419;SDS011;56612;52.030;113.524;2023-02-28T18:04:00;26.60;;;7.70;;
69419;SDS011;56612;52.030;113.524;2023-02-28T18:07:05;20.27;;;6.18;;
69419;SDS011;56612;52.030;113.524;2023-02-28T18:10:11;25.15;;;7.03;;
69419;SDS011;56612;52.030;113.524;2023-02-28T18:13:19;21.60;;;6.10;;
69419;SDS011;56612;52.030;113.524;2023-02-28T18:16:22;18.42;;;5.90;;
69419;SDS011;56612;52.030;113.524;2023-02-28T18:19:24;20.08;;;5.55;;
69419;SDS011;56612;52.030;113.524;2023-02-28T18:22:28;18.77;;;5.40;;
69419;SDS011;56612;52.030;113.524;2023-02-28T18:25:31;19.90;;;5.00;;
69419;SDS011;56612;52.030;113.524;2023-02-28T18:28:34;17.05;;;5.72;;
69419;SDS011;56612;52.030;113.524;2023-02-28T18:31:38;17.20;;;5.22;;
69419;SDS011;56612;52.030;113.524;2023-02-28T18:34:41;16.33;;;5.30;;
69419;SDS011;56612;52.030;113.524;2023-02-28T18:37:44;15.80;;;5.13;;
69419;SDS011;56612;52.030;113.524;2023-02-28T18:40:51;17.15;;;5.05;;
69419;SDS011;56612;52.030;113.524;2023-02-28T18:43:57;17.17;;;6.18;;
69419;SDS011;56612;52.030;113.524;2023-02-28T18:47:20;17.80;;;4.97;;
69419;SDS011;56612;52.030;113.524;2023-02-28T18:50:24;32.83;;;8.80;;
69419;SDS011;56612;52.030;113.524;2023-02-28T18:53:27;22.63;;;7.53;;
69419;SDS011;56612;52.030;113.524;2023-02-28T18:56:31;19.00;;;5.55;;
69419;SDS011;56612;52.030;113.524;2023-02-28T18:59:34;25.48;;;6.30;;
69419;SDS011;56612;52.030;113.524;2023-02-28T19:02:38;19.90;;;6.93;;
69419;SDS011;56612;52.030;113.524;2023-02-28T19:05:42;22.63;;;6.80;;
69419;SDS011;56612;52.030;113.524;2023-02-28T19:08:45;23.20;;;8.10;;
69419;SDS011;56612;52.030;113.524;2023-02-28T19:11:49;22.90;;;6.43;;
69419;SDS011;56612;52.030;113.524;2023-02-28T19:14:53;18.87;;;6.93;;
69419;SDS011;56612;52.030;113.524;2023-02-28T19:17:57;18.15;;;5.22;;
69419;SDS011;56612;52.030;113.524;2023-02-28T19:21:01;20.00;;;5.70;;
69419;SDS011;56612;52.030;113.524;2023-02-28T19:24:05;15.25;;;5.13;;
69419;SDS011;56612;52.030;113.524;2023-02-28T19:27:09;17.80;;;5.63;;
69419;SDS011;56612;52.030;113.524;2023-02-28T19:30:12;11.90;;;4.22;;
69419;SDS011;56612;52.030;113.524;2023-02-28T19:33:16;13.60;;;4.00;;
69419;SDS011;56612;52.030;113.524;2023-02-28T19:36:20;11.45;;;4.03;;
69419;SDS011;56612;52.030;113.524;2023-02-28T19:39:23;12.27;;;4.10;;
69419;SDS011;56612;52.030;113.524;2023-02-28T19:42:26;14.68;;;4.78;;
69419;SDS011;56612;52.030;113.524;2023-02-28T19:45:35;19.80;;;5.18;;
69419;SDS011;56612;52.030;113.524;2023-02-28T19:48:39;17.33;;;4.78;;
69419;SDS011;56612;52.030;113.524;2023-02-28T19:51:43;20.67;;;4.33;;
69419;SDS011;56612;52.030;113.524;2023-02-28T19:54:48;11.02;;;4.57;;
69419;SDS011;56612;52.030;113.524;2023-02-28T19:57:51;14.25;;;4.60;;
69419;SDS011;56612;52.030;113.524;2023-02-28T20:00:55;12.20;;;4.38;;
69419;SDS011;56612;52.030;113.524;2023-02-28T20:03:58;11.33;;;4.23;;
69419;SDS011;56612;52.030;113.524;2023-02-28T20:07:02;10.18;;;3.72;;
69419;SDS011;56612;52.030;113.524;2023-02-28T20:10:06;13.63;;;4.68;;
69419;SDS011;56612;52.030;113.524;2023-02-28T20:13:10;11.52;;;4.25;;
69419;SDS011;56612;52.030;113.524;2023-02-28T20:16:14;13.47;;;4.23;;
69419;SDS011;56612;52.030;113.524;2023-02-28T20:19:17;12.63;;;4.32;;
69419;SDS011;56612;52.030;113.524;2023-02-28T20:22:21;12.18;;;4.95;;
69419;SDS011;56612;52.030;113.524;2023-02-28T20:25:25;16.33;;;4.57;;